Time;durP1;ratioP1;P1;durP2;ratioP2;P2;SDS_P1;SDS_P2;PMS_P1;PMS_P2;Temp;Humidity;BMP_temperature;BMP_pressure;BME280_temperature;BME280_humidity;BME280_pressure;Samples;Min_cycle;Max_cycle;Signal;HPM_P1;HPM_P2
2022/01/23 00:00:55;;;;;;;80.78;38.88;;;8.20;69.10;;;;;;6232559;22;20441;-57
2022/01/23 00:03:22;;;;;;;80.82;40.90;;;8.20;69.10;;;;;;6233398;22;20317;-58
2022/01/23 00:05:51;;;;;;;81.75;39.78;;;8.20;69.30;;;;;;6234829;23;20452;-58
2022/01/23 00:08:23;;;;;;;85.63;42.72;;;8.20;69.20;;;;;;6235684;23;19999;-58
2022/01/23 00:10:53;;;;;;;82.95;40.45;;;8.20;69.20;;;;;;6231982;23;20003;-57
2022/01/23 00:17:11;;;;;;;83.28;42.05;;;8.20;69.30;;;;;;6235440;23;20123;-56
2022/01/23 00:18:59;;;;;;;74.47;37.53;;;8.20;69.30;;;;;;6244229;23;20468;-57
2022/01/23 00:21:25;;;;;;;74.07;38.45;;;8.20;69.30;;;;;;6234073;23;20008;-58
2022/01/23 00:31:47;;;;;;;71.93;38.95;;;8.30;69.40;;;;;;6242521;23;20027;-58
2022/01/23 00:34:13;;;;;;;77.55;40.17;;;8.30;69.30;;;;;;6236017;23;20004;-56
2022/01/23 00:36:39;;;;;;;75.75;39.20;;;8.30;69.20;;;;;;6232834;23;20000;-56
2022/01/23 00:39:06;;;;;;;80.28;41.35;;;8.30;69.20;;;;;;6235702;23;20000;-58
2022/01/23 00:41:32;;;;;;;73.55;38.90;;;8.30;69.10;;;;;;6233043;23;20433;-58
2022/01/23 00:43:59;;;;;;;81.35;40.63;;;8.30;69.10;;;;;;6233558;23;20003;-58
2022/01/23 00:46:33;;;;;;;77.75;40.88;;;8.30;69.10;;;;;;6232908;22;20012;-58
2022/01/23 00:51:37;;;;;;;80.90;41.28;;;8.30;69.00;;;;;;6233282;23;20430;-58
2022/01/23 00:54:10;;;;;;;87.30;42.65;;;8.30;68.80;;;;;;6243196;23;20325;-56
2022/01/23 00:56:37;;;;;;;88.80;41.85;;;8.30;68.80;;;;;;6243934;23;20007;-56
2022/01/23 00:59:04;;;;;;;77.40;39.78;;;8.30;68.70;;;;;;6233966;22;20000;-57
2022/01/23 01:01:31;;;;;;;81.80;41.47;;;8.40;68.80;;;;;;6232456;23;20321;-58
2022/01/23 01:03:57;;;;;;;76.85;38.50;;;8.40;68.80;;;;;;6232128;23;20019;-57
2022/01/23 01:06:23;;;;;;;81.95;39.95;;;8.40;68.80;;;;;;6234452;23;20007;-58
2022/01/23 01:08:51;;;;;;;85.80;43.97;;;8.30;68.80;;;;;;6234778;22;20008;-58
2022/01/23 01:16:58;;;;;;;83.30;39.70;;;8.40;68.70;;;;;;6241318;22;20008;-56
2022/01/23 01:35:54;;;;;;;76.53;39.53;;;8.40;68.30;;;;;;6235351;23;20015;-55
2022/01/23 01:38:20;;;;;;;76.00;39.10;;;8.40;68.40;;;;;;6232133;23;20333;-58
2022/01/23 01:40:46;;;;;;;76.90;39.33;;;8.40;68.40;;;;;;6233348;23;20003;-56
2022/01/23 01:43:13;;;;;;;76.13;40.42;;;8.40;68.50;;;;;;6233177;23;20011;-58
2022/01/23 01:45:41;;;;;;;76.30;39.63;;;8.40;68.40;;;;;;6234077;23;20011;-58
2022/01/23 01:48:07;;;;;;;77.63;39.40;;;8.30;68.40;;;;;;6230118;23;20007;-56
2022/01/23 01:50:33;;;;;;;79.90;41.65;;;8.30;68.50;;;;;;6233877;23;19996;-57
2022/01/23 01:53:00;;;;;;;78.10;41.63;;;8.30;68.50;;;;;;6233911;23;20004;-58
2022/01/23 01:55:38;;;;;;;82.70;42.17;;;8.30;68.50;;;;;;6234727;23;19996;-57
2022/01/23 01:58:05;;;;;;;82.57;41.60;;;8.40;68.60;;;;;;6232196;23;20000;-57
2022/01/23 02:00:52;;;;;;;88.88;44.25;;;8.40;68.40;;;;;;6232798;22;20004;-58
2022/01/23 02:08:38;;;;;;;82.35;40.58;;;8.30;68.40;;;;;;6242497;23;20452;-58
2022/01/23 02:11:11;;;;;;;85.28;43.03;;;8.30;68.50;;;;;;6232573;22;20009;-58
2022/01/23 02:13:48;;;;;;;78.97;42.03;;;8.30;68.50;;;;;;6243988;23;20296;-59
2022/01/23 02:16:40;;;;;;;84.32;42.85;;;8.30;68.50;;;;;;6233537;22;20004;-59
2022/01/23 02:54:58;;;;;;;93.32;43.92;;;8.30;68.70;;;;;;6244208;23;20012;-57
2022/01/23 02:57:53;;;;;;;101.07;46.10;;;8.30;68.80;;;;;;6232077;23;20008;-59
2022/01/23 03:00:21;;;;;;;;;;;8.30;68.80;;;;;;6232261;22;20015;-58
2022/01/23 03:02:51;;;;;;;94.20;46.25;;;8.20;68.80;;;;;;6229033;23;19904;-58
2022/01/23 03:05:34;;;;;;;102.18;49.00;;;8.30;68.60;;;;;;6234835;23;20005;-56
2022/01/23 03:10:43;;;;;;;98.47;47.50;;;8.20;68.80;;;;;;6231378;23;20012;-59
2022/01/23 03:27:14;;;;;;;101.45;48.95;;;8.20;69.50;;;;;;6236394;23;20012;-57
2022/01/23 03:29:27;;;;;;;97.80;48.05;;;8.20;69.60;;;;;;6234789;23;20004;-59
2022/01/23 03:34:23;;;;;;;102.25;49.22;;;8.20;69.60;;;;;;6235456;23;20027;-56
2022/01/23 03:36:49;;;;;;;106.43;50.08;;;8.20;69.50;;;;;;6233904;23;20008;-57
2022/01/23 03:39:15;;;;;;;99.50;47.65;;;8.20;69.50;;;;;;6234908;23;20000;-57
2022/01/23 03:41:44;;;;;;;98.93;47.55;;;8.20;69.50;;;;;;6233482;23;20329;-59
2022/01/23 03:44:12;;;;;;;104.35;49.42;;;8.30;69.50;;;;;;6232147;23;20004;-57
2022/01/23 03:49:32;;;;;;;103.65;49.05;;;8.30;69.40;;;;;;6245549;23;20429;-59
2022/01/23 03:52:00;;;;;;;96.97;46.92;;;8.30;69.30;;;;;;6234655;22;20008;-59
2022/01/23 03:54:27;;;;;;;104.00;47.53;;;8.30;69.30;;;;;;6235313;22;20015;-58
2022/01/23 03:56:55;;;;;;;94.60;46.00;;;8.30;69.30;;;;;;6235085;22;20333;-59
2022/01/23 03:59:22;;;;;;;93.50;45.30;;;8.30;69.30;;;;;;6234104;22;20004;-58
2022/01/23 04:01:48;;;;;;;89.78;46.83;;;8.30;69.30;;;;;;6231069;23;20433;-58
2022/01/23 04:04:36;;;;;;;90.95;46.67;;;8.30;69.20;;;;;;6234903;23;20019;-58
2022/01/23 04:07:00;;;;;;;95.63;45.60;;;8.30;69.20;;;;;;6235133;22;20012;-59
2022/01/23 04:09:26;;;;;;;104.30;48.53;;;8.30;69.80;;;;;;6235930;22;20427;-59
2022/01/23 04:11:53;;;;;;;104.03;49.78;;;8.30;69.10;;;;;;6233785;23;19996;-57
2022/01/23 04:14:22;;;;;;;104.60;49.22;;;8.30;68.90;;;;;;6235826;23;19996;-59
2022/01/23 04:19:41;;;;;;;95.85;47.38;;;8.30;68.90;;;;;;6245094;23;20494;-59
2022/01/23 04:45:11;;;;;;;99.53;47.47;;;8.20;69.00;;;;;;6245561;23;20004;-58
2022/01/23 05:00:34;;;;;;;100.30;46.90;;;8.10;69.80;;;;;;6243215;23;20015;-59
2022/01/23 05:05:33;;;;;;;93.25;46.28;;;8.10;69.90;;;;;;6234723;23;20009;-57
2022/01/23 05:08:04;;;;;;;91.00;46.80;;;8.10;69.80;;;;;;6235626;23;20007;-58
2022/01/23 05:10:30;;;;;;;90.95;45.55;;;8.20;69.90;;;;;;6230980;23;20000;-58
2022/01/23 05:12:56;;;;;;;106.47;48.53;;;8.20;69.90;;;;;;6233343;23;19996;-57
2022/01/23 05:15:23;;;;;;;102.43;49.10;;;8.20;69.70;;;;;;6233181;23;20004;-59
2022/01/23 05:17:49;;;;;;;98.03;46.78;;;8.20;69.70;;;;;;6224794;22;20095;-59
2022/01/23 05:20:17;;;;;;;101.13;48.03;;;8.20;69.80;;;;;;6234025;23;20035;-59
2022/01/23 05:22:48;;;;;;;96.13;48.60;;;8.20;69.70;;;;;;6234199;22;20012;-57
2022/01/23 05:25:21;;;;;;;92.82;46.22;;;8.20;69.60;;;;;;6232303;22;20023;-59
2022/01/23 05:27:51;;;;;;;94.03;47.05;;;8.30;69.70;;;;;;6233743;22;20003;-59
2022/01/23 05:30:18;;;;;;;97.55;46.63;;;8.30;69.60;;;;;;6231655;23;20394;-59
2022/01/23 05:32:44;;;;;;;100.40;47.95;;;8.30;69.50;;;;;;6231708;22;20034;-56
2022/01/23 05:35:13;;;;;;;89.03;45.50;;;8.30;69.40;;;;;;6234440;23;20432;-59
2022/01/23 05:37:40;;;;;;;89.10;43.70;;;8.30;69.30;;;;;;6232334;22;20004;-59
2022/01/23 05:40:11;;;;;;;93.53;44.92;;;8.30;69.30;;;;;;6233167;22;20003;-59
2022/01/23 05:42:37;;;;;;;90.30;45.75;;;8.30;69.20;;;;;;6230677;23;20023;-57
2022/01/23 05:45:04;;;;;;;103.97;47.53;;;8.30;69.20;;;;;;6232567;23;20000;-57
2022/01/23 05:47:31;;;;;;;101.20;46.47;;;8.30;69.10;;;;;;6232412;23;20011;-59
2022/01/23 05:49:57;;;;;;;102.55;46.85;;;8.30;69.00;;;;;;6229799;23;20004;-56
2022/01/23 05:52:23;;;;;;;98.70;46.20;;;8.30;69.00;;;;;;6233237;23;20008;-59
2022/01/23 05:54:49;;;;;;;93.72;45.53;;;8.30;69.10;;;;;;6233385;23;20015;-57
2022/01/23 06:00:38;;;;;;;96.53;46.67;;;8.30;69.00;;;;;;6252346;23;20007;-59
2022/01/23 06:03:04;;;;;;;96.00;45.85;;;8.30;69.10;;;;;;6233582;23;20011;-59
2022/01/23 06:05:30;;;;;;;94.38;47.25;;;8.30;69.10;;;;;;6235301;22;20034;-57
2022/01/23 06:07:56;;;;;;;105.03;47.78;;;8.30;68.90;;;;;;6232721;23;20004;-59
2022/01/23 06:10:25;;;;;;;96.70;47.00;;;8.30;69.00;;;;;;6231129;23;20000;-59
2022/01/23 06:12:52;;;;;;;102.80;48.13;;;8.30;69.00;;;;;;6234105;23;20008;-57
2022/01/23 06:15:19;;;;;;;93.65;45.05;;;8.20;69.00;;;;;;6233481;23;20000;-58
2022/01/23 06:17:45;;;;;;;100.32;46.78;;;8.20;69.10;;;;;;6228603;22;20019;-59
2022/01/23 06:20:14;;;;;;;84.65;42.70;;;8.20;69.10;;;;;;6231945;23;20000;-59
2022/01/23 06:22:43;;;;;;;96.32;45.60;;;8.20;69.40;;;;;;6233434;22;20274;-59
2022/01/23 06:25:12;;;;;;;95.82;44.92;;;8.30;69.20;;;;;;6233431;22;20012;-59
2022/01/23 06:27:40;;;;;;;100.90;44.95;;;8.30;69.20;;;;;;6232750;22;20404;-59
2022/01/23 06:30:07;;;;;;;88.13;43.67;;;8.30;69.20;;;;;;6233892;23;19996;-59
2022/01/23 06:32:33;;;;;;;103.28;47.30;;;8.30;69.10;;;;;;6229734;23;20027;-59
2022/01/23 06:35:00;;;;;;;85.57;43.22;;;8.30;69.10;;;;;;6233763;23;20004;-59
2022/01/23 06:37:26;;;;;;;92.05;44.33;;;8.30;69.10;;;;;;6233790;22;20813;-58
2022/01/23 06:39:52;;;;;;;95.47;46.85;;;8.30;69.10;;;;;;6234431;23;19996;-59
2022/01/23 06:42:18;;;;;;;91.30;47.03;;;8.30;69.00;;;;;;6233307;23;20369;-57
2022/01/23 06:44:44;;;;;;;89.38;45.15;;;8.30;68.90;;;;;;6233056;23;20007;-59
2022/01/23 06:47:11;;;;;;;90.82;45.95;;;8.30;69.00;;;;;;6231360;23;20000;-59
2022/01/23 06:49:37;;;;;;;93.78;45.97;;;8.30;69.00;;;;;;6233968;23;20001;-59
2022/01/23 06:52:04;;;;;;;88.07;42.38;;;8.30;69.80;;;;;;6231058;22;20000;-57
2022/01/23 06:54:30;;;;;;;88.75;44.55;;;8.30;69.00;;;;;;6232210;23;20008;-58
2022/01/23 06:56:56;;;;;;;97.68;47.83;;;8.30;69.00;;;;;;6233104;23;20425;-59
2022/01/23 06:59:22;;;;;;;95.30;46.67;;;8.30;69.00;;;;;;6235962;23;20007;-59
2022/01/23 07:01:48;;;;;;;94.55;47.47;;;8.20;68.90;;;;;;6232806;23;20001;-59
2022/01/23 07:04:15;;;;;;;93.57;45.08;;;8.20;68.90;;;;;;6235572;23;19996;-59
2022/01/23 07:06:41;;;;;;;91.30;45.15;;;8.20;68.90;;;;;;6234465;23;20000;-57
2022/01/23 07:09:07;;;;;;;90.57;43.95;;;8.20;69.00;;;;;;6235426;23;19996;-59
2022/01/23 07:11:33;;;;;;;92.38;45.38;;;8.20;69.00;;;;;;6233884;23;20011;-59
2022/01/23 07:14:00;;;;;;;91.68;45.95;;;8.20;69.10;;;;;;6234128;23;20008;-60
2022/01/23 07:16:26;;;;;;;88.60;43.83;;;8.30;69.10;;;;;;6235151;22;20007;-59
2022/01/23 07:18:52;;;;;;;100.15;45.50;;;8.30;69.10;;;;;;6234705;23;20318;-60
2022/01/23 07:21:19;;;;;;;98.25;48.85;;;8.30;69.10;;;;;;6233328;23;20373;-60
2022/01/23 07:23:50;;;;;;;105.38;46.65;;;8.30;69.00;;;;;;6232947;22;20456;-59
2022/01/23 07:26:19;;;;;;;91.95;44.65;;;8.30;68.90;;;;;;6241939;23;19992;-59
2022/01/23 07:28:46;;;;;;;103.05;46.10;;;8.30;68.80;;;;;;6234324;22;20334;-59
2022/01/23 07:31:21;;;;;;;92.78;45.88;;;8.30;68.80;;;;;;6234115;22;20385;-59
2022/01/23 07:33:48;;;;;;;87.32;43.13;;;8.30;68.80;;;;;;6241465;23;20011;-59
2022/01/23 07:36:14;;;;;;;88.53;43.80;;;8.30;68.80;;;;;;6234338;23;20009;-59
2022/01/23 07:38:40;;;;;;;105.10;49.10;;;8.30;68.80;;;;;;6234079;23;20008;-57
2022/01/23 07:41:06;;;;;;;100.18;49.63;;;8.30;68.80;;;;;;6234408;22;20143;-59
2022/01/23 07:43:32;;;;;;;108.18;48.47;;;8.30;68.80;;;;;;6235081;23;20321;-59
2022/01/23 07:45:58;;;;;;;99.70;47.35;;;8.30;68.70;;;;;;6231751;23;20012;-59
2022/01/23 07:48:24;;;;;;;90.85;45.78;;;8.30;68.60;;;;;;6231598;23;20360;-57
2022/01/23 07:50:51;;;;;;;92.85;46.13;;;8.30;68.70;;;;;;6232792;23;20000;-59
2022/01/23 07:53:17;;;;;;;93.43;45.90;;;8.30;68.70;;;;;;6234775;23;20445;-60
2022/01/23 07:55:43;;;;;;;96.63;47.92;;;8.30;68.70;;;;;;6235923;23;20349;-59
2022/01/23 07:58:14;;;;;;;103.13;49.08;;;8.30;68.80;;;;;;6235149;22;20418;-60
2022/01/23 08:00:41;;;;;;;110.82;55.30;;;8.30;68.80;;;;;;6233223;22;20008;-59
2022/01/23 08:03:08;;;;;;;102.70;50.38;;;8.30;68.80;;;;;;6232676;22;20198;-59
2022/01/23 08:05:35;;;;;;;87.95;44.78;;;8.40;68.90;;;;;;6234704;22;20008;-59
2022/01/23 08:08:01;;;;;;;93.15;45.45;;;8.30;68.80;;;;;;6235510;22;20004;-59
2022/01/23 08:10:28;;;;;;;99.03;48.92;;;8.40;68.80;;;;;;6232646;23;20418;-60
2022/01/23 08:12:54;;;;;;;92.18;46.28;;;8.40;68.70;;;;;;6230124;23;20008;-60
2022/01/23 08:15:20;;;;;;;99.93;48.58;;;8.40;68.60;;;;;;6230994;23;20008;-59
2022/01/23 08:17:46;;;;;;;99.47;46.00;;;8.40;69.30;;;;;;6232793;22;20016;-59
2022/01/23 08:20:13;;;;;;;92.55;44.35;;;8.40;68.70;;;;;;6231631;22;20258;-59
2022/01/23 08:22:39;;;;;;;95.57;44.80;;;8.40;68.80;;;;;;6233842;22;20491;-60
2022/01/23 08:25:06;;;;;;;99.90;46.30;;;8.40;68.90;;;;;;6233513;23;20004;-60
2022/01/23 08:27:32;;;;;;;93.78;45.72;;;8.40;68.90;;;;;;6231554;23;20000;-59
2022/01/23 08:29:59;;;;;;;106.55;50.22;;;8.40;68.90;;;;;;6233408;23;20011;-59
2022/01/23 08:32:25;;;;;;;113.93;55.97;;;8.40;68.90;;;;;;6231529;23;20004;-59
2022/01/23 08:34:52;;;;;;;105.45;51.25;;;8.50;69.00;;;;;;6231965;23;20434;-59
2022/01/23 08:37:19;;;;;;;91.75;45.28;;;8.50;69.00;;;;;;6231703;23;19992;-59
2022/01/23 08:39:45;;;;;;;88.82;43.08;;;8.40;68.90;;;;;;6231444;23;20007;-59
2022/01/23 08:42:17;;;;;;;91.28;42.67;;;8.50;69.10;;;;;;6231063;23;20009;-60
2022/01/23 08:44:45;;;;;;;100.20;46.40;;;8.50;69.10;;;;;;6244828;23;20011;-60
2022/01/23 08:47:12;;;;;;;92.95;45.47;;;8.50;69.10;;;;;;6229037;23;20004;-60
2022/01/23 08:49:45;;;;;;;97.15;47.15;;;8.50;69.10;;;;;;6231742;23;20011;-60
2022/01/23 08:52:12;;;;;;;94.43;45.63;;;8.60;69.10;;;;;;6234239;22;20011;-59
2022/01/23 08:54:38;;;;;;;98.40;47.08;;;8.60;69.00;;;;;;6233627;22;20004;-60
2022/01/23 08:57:05;;;;;;;100.45;47.75;;;8.60;69.00;;;;;;6235472;23;20000;-59
2022/01/23 08:59:32;;;;;;;99.13;47.42;;;8.60;69.00;;;;;;6235508;23;20440;-59
2022/01/23 09:01:58;;;;;;;101.72;48.25;;;8.70;69.00;;;;;;6231129;23;20777;-58
2022/01/23 09:04:24;;;;;;;94.57;46.30;;;8.70;68.80;;;;;;6235223;23;20004;-60
2022/01/23 09:06:50;;;;;;;108.03;50.58;;;8.70;68.70;;;;;;6235637;23;20301;-59
2022/01/23 09:09:20;;;;;;;104.88;49.33;;;8.70;68.70;;;;;;6232227;23;20000;-60
2022/01/23 09:12:07;;;;;;;93.53;46.88;;;8.70;68.70;;;;;;6233553;23;20466;-59
2022/01/23 09:14:34;;;;;;;97.38;46.10;;;8.70;68.50;;;;;;6245552;23;20011;-60
2022/01/23 09:17:01;;;;;;;100.35;48.88;;;8.70;68.40;;;;;;6233401;22;20008;-59
2022/01/23 09:19:29;;;;;;;105.82;47.95;;;8.70;68.40;;;;;;6235022;23;20562;-59
2022/01/23 09:21:57;;;;;;;97.82;46.65;;;8.70;68.50;;;;;;6234015;23;20029;-59
2022/01/23 09:24:25;;;;;;;100.68;46.63;;;8.70;68.60;;;;;;6234655;23;20051;-59
2022/01/23 09:26:54;;;;;;;95.05;47.13;;;8.70;68.60;;;;;;6234447;23;20016;-59
2022/01/23 09:30:05;;;;;;;97.93;47.28;;;8.80;68.60;;;;;;6233870;22;20008;-59
2022/01/23 09:32:18;;;;;;;106.80;48.63;;;8.80;68.50;;;;;;6226848;23;20004;-59
2022/01/23 09:34:45;;;;;;;100.68;48.28;;;8.80;68.40;;;;;;6234986;23;20000;-59
2022/01/23 09:37:14;;;;;;;104.85;49.75;;;8.80;68.40;;;;;;6231009;23;20019;-59
2022/01/23 09:39:45;;;;;;;98.70;48.35;;;8.80;68.30;;;;;;6234434;23;20326;-59
2022/01/23 09:42:19;;;;;;;95.43;47.88;;;8.70;68.20;;;;;;6243470;23;20012;-59
2022/01/23 09:44:56;;;;;;;107.25;48.58;;;8.80;68.50;;;;;;6244331;23;20326;-59
2022/01/23 09:47:22;;;;;;;105.65;47.90;;;8.80;68.40;;;;;;6242668;23;19996;-59
2022/01/23 09:49:51;;;;;;;110.30;46.65;;;8.80;68.40;;;;;;6234104;23;20318;-59
2022/01/23 09:52:19;;;;;;;95.05;47.47;;;8.80;68.50;;;;;;6233275;23;20007;-59
2022/01/23 09:54:56;;;;;;;101.03;47.55;;;8.80;68.40;;;;;;6234890;23;20003;-59
2022/01/23 09:57:28;;;;;;;99.97;47.88;;;8.80;68.40;;;;;;6232512;22;20430;-58
2022/01/23 09:59:55;;;;;;;101.68;47.95;;;8.80;68.40;;;;;;6234039;22;20007;-60
2022/01/23 10:02:23;;;;;;;97.50;47.15;;;8.80;68.40;;;;;;6232335;23;20011;-59
2022/01/23 10:04:51;;;;;;;102.72;47.25;;;8.90;68.40;;;;;;6234928;23;19996;-60
2022/01/23 10:07:18;;;;;;;106.15;50.03;;;8.90;68.10;;;;;;6234172;23;20007;-60
2022/01/23 10:09:51;;;;;;;95.25;47.35;;;8.90;67.70;;;;;;6232816;23;19997;-59
2022/01/23 10:12:19;;;;;;;105.78;49.88;;;8.90;67.70;;;;;;6240889;23;20444;-60
2022/01/23 10:14:45;;;;;;;104.93;50.17;;;8.90;67.90;;;;;;6233638;23;19996;-60
2022/01/23 10:17:11;;;;;;;94.95;46.85;;;8.90;67.50;;;;;;6232857;22;20437;-60
2022/01/23 10:19:39;;;;;;;99.50;47.03;;;8.90;67.40;;;;;;6234571;23;20027;-60
2022/01/23 10:22:06;;;;;;;101.63;48.13;;;8.90;67.10;;;;;;6233478;22;20023;-59
2022/01/23 10:24:33;;;;;;;97.13;45.83;;;8.90;67.60;;;;;;6234395;23;20321;-60
2022/01/23 10:26:59;;;;;;;99.88;47.08;;;8.90;67.40;;;;;;6234673;23;20333;-59
2022/01/23 10:29:36;;;;;;;97.82;48.00;;;9.00;67.50;;;;;;6234792;23;20004;-57
2022/01/23 10:32:02;;;;;;;105.30;50.15;;;9.00;67.50;;;;;;6244207;23;20325;-60
2022/01/23 10:34:45;;;;;;;103.63;48.65;;;9.00;67.50;;;;;;6237652;23;20004;-59
2022/01/23 10:37:23;;;;;;;98.47;47.42;;;9.00;67.50;;;;;;6247851;23;20055;-60
2022/01/23 10:39:49;;;;;;;96.95;44.35;;;9.10;67.60;;;;;;6237154;22;20007;-60
2022/01/23 10:48:35;;;;;;;93.43;46.00;;;9.10;67.10;;;;;;6246602;23;20015;-60
2022/01/23 10:51:31;;;;;;;101.68;46.58;;;9.10;66.50;;;;;;6236581;23;20011;-60
2022/01/23 10:54:14;;;;;;;95.35;45.35;;;9.10;66.90;;;;;;6235150;23;20634;-58
2022/01/23 10:56:49;;;;;;;96.70;46.35;;;9.10;66.20;;;;;;6248205;23;20425;-59
2022/01/23 10:59:15;;;;;;;93.93;46.30;;;9.10;66.10;;;;;;6238576;23;20194;-60
2022/01/23 11:02:07;;;;;;;94.25;44.85;;;9.10;66.30;;;;;;6233246;23;20004;-60
2022/01/23 11:04:52;;;;;;;92.88;44.08;;;9.00;66.20;;;;;;6230622;22;20000;-60
2022/01/23 11:07:18;;;;;;;90.03;44.65;;;9.10;67.30;;;;;;6235159;23;20004;-59
2022/01/23 11:09:44;;;;;;;96.82;47.45;;;9.10;66.70;;;;;;6236764;23;20004;-60
2022/01/23 11:18:03;;;;;;;96.72;46.55;;;9.10;66.30;;;;;;6237845;22;20035;-59
2022/01/23 11:20:34;;;;;;;85.68;41.92;;;9.10;66.30;;;;;;6237078;23;19996;-60
2022/01/23 11:23:19;;;;;;;92.72;43.17;;;9.10;66.60;;;;;;6233564;23;20011;-60
2022/01/23 11:26:07;;;;;;;83.18;41.85;;;9.10;66.60;;;;;;6236788;22;20012;-59
2022/01/23 11:28:37;;;;;;;80.88;40.72;;;9.20;67.00;;;;;;6245693;23;19996;-59
2022/01/23 11:31:06;;;;;;;84.20;41.88;;;9.20;66.90;;;;;;6235606;22;20000;-60
2022/01/23 11:33:32;;;;;;;86.32;41.10;;;9.20;66.50;;;;;;6235755;23;20301;-59
2022/01/23 11:36:00;;;;;;;93.53;44.75;;;9.30;66.30;;;;;;6237393;23;20004;-59
2022/01/23 11:38:28;;;;;;;90.70;42.63;;;9.30;66.10;;;;;;6236511;22;20004;-59
2022/01/23 11:55:34;;;;;;;80.38;39.72;;;9.40;65.90;;;;;;6243460;23;20019;-59
2022/01/23 11:58:02;;;;;;;81.13;40.70;;;9.50;65.70;;;;;;6241214;23;20011;-59
2022/01/23 12:00:32;;;;;;;85.88;41.20;;;9.50;65.80;;;;;;6233740;23;20027;-59
2022/01/23 12:03:16;;;;;;;80.82;41.33;;;9.50;65.80;;;;;;6231477;23;20426;-59
2022/01/23 12:05:47;;;;;;;81.50;39.92;;;9.50;65.30;;;;;;6242956;23;20008;-59
2022/01/23 12:08:20;;;;;;;75.45;38.05;;;9.50;65.30;;;;;;6242589;23;20008;-59
2022/01/23 12:11:56;;;;;;;72.20;37.90;;;9.50;65.20;;;;;;6233311;23;20011;-59
2022/01/23 12:17:01;;;;;;;74.18;38.05;;;9.60;64.90;;;;;;6242220;22;19908;-59
2022/01/23 12:19:29;;;;;;;83.22;39.50;;;9.60;64.20;;;;;;6232181;23;20000;-59
2022/01/23 12:21:58;;;;;;;84.43;41.30;;;9.60;64.40;;;;;;6234276;23;20015;-59
2022/01/23 12:24:26;;;;;;;82.15;40.47;;;9.60;64.70;;;;;;6233517;22;20008;-59
2022/01/23 12:27:16;;;;;;;76.63;38.35;;;9.60;64.30;;;;;;6233541;23;20008;-59
2022/01/23 12:29:43;;;;;;;74.00;36.92;;;9.60;63.20;;;;;;6242954;23;20000;-60
2022/01/23 12:32:34;;;;;;;77.22;39.13;;;9.60;63.50;;;;;;6230560;23;20613;-59
2022/01/23 12:35:03;;;;;;;75.00;36.90;;;9.50;63.10;;;;;;6232268;22;20008;-59
2022/01/23 12:38:00;;;;;;;83.93;41.10;;;9.50;63.10;;;;;;6232660;23;20285;-59
2022/01/23 12:40:28;;;;;;;78.50;38.67;;;9.50;63.10;;;;;;6233883;23;20000;-59
2022/01/23 12:43:09;;;;;;;77.28;38.47;;;9.40;63.40;;;;;;6233085;22;20190;-59
2022/01/23 12:46:05;;;;;;;76.15;37.53;;;9.40;63.70;;;;;;6234531;23;20007;-59
2022/01/23 12:48:32;;;;;;;75.20;37.28;;;9.40;63.10;;;;;;6217086;23;20012;-59
2022/01/23 12:51:12;;;;;;;80.78;37.72;;;9.40;63.40;;;;;;6231518;23;20015;-59
2022/01/23 12:53:47;;;;;;;72.45;37.53;;;9.40;63.50;;;;;;6241981;23;20000;-59
2022/01/23 12:56:19;;;;;;;74.40;36.90;;;9.40;63.80;;;;;;6233821;23;20004;-59
2022/01/23 12:59:00;;;;;;;73.85;37.35;;;9.40;63.90;;;;;;6243997;23;20000;-59
2022/01/23 13:01:28;;;;;;;79.18;38.67;;;9.40;64.20;;;;;;6232285;22;20004;-59
2022/01/23 13:03:59;;;;;;;76.57;38.33;;;9.50;64.50;;;;;;6231360;22;20027;-59
2022/01/23 13:06:35;;;;;;;75.57;37.67;;;9.50;64.50;;;;;;6244106;23;20004;-59
2022/01/23 13:09:48;;;;;;;73.38;36.75;;;9.50;64.10;;;;;;6234201;23;20194;-59
2022/01/23 13:32:08;;;;;;;63.33;32.90;;;9.50;62.70;;;;;;6241496;23;20004;-59
2022/01/23 13:34:41;;;;;;;66.65;34.20;;;9.50;62.50;;;;;;6244735;23;20000;-59
2022/01/23 13:37:10;;;;;;;69.65;34.10;;;9.40;62.60;;;;;;6234490;23;20441;-59
2022/01/23 13:39:47;;;;;;;63.13;31.70;;;9.50;63.10;;;;;;6234491;23;20000;-59
2022/01/23 13:59:28;;;;;;;64.47;31.90;;;9.60;63.10;;;;;;6242973;23;19996;-59
2022/01/23 14:04:28;;;;;;;59.90;30.10;;;9.60;62.50;;;;;;6233692;23;20333;-60
2022/01/23 14:06:55;;;;;;;61.28;30.67;;;9.60;62.70;;;;;;6233346;23;20007;-58
2022/01/23 14:09:24;;;;;;;54.03;26.67;;;9.70;63.70;;;;;;6233531;23;20011;-59
2022/01/23 14:11:50;;;;;;;55.60;28.60;;;9.70;62.70;;;;;;6233617;23;20278;-59
2022/01/23 14:14:16;;;;;;;56.88;28.33;;;9.70;62.80;;;;;;6233821;23;20035;-59
2022/01/23 14:16:44;;;;;;;61.97;31.75;;;9.70;62.70;;;;;;6230375;22;20417;-59
2022/01/23 14:19:21;;;;;;;61.40;30.25;;;9.70;62.20;;;;;;6230663;23;20000;-59
2022/01/23 14:21:51;;;;;;;55.55;29.20;;;9.70;61.50;;;;;;6239012;23;20004;-57
2022/01/23 14:24:37;;;;;;;58.20;29.40;;;9.70;61.60;;;;;;6232681;23;20009;-59
2022/01/23 14:27:09;;;;;;;56.03;26.70;;;9.70;61.40;;;;;;6243009;23;20189;-59
2022/01/23 14:29:55;;;;;;;52.90;27.67;;;9.70;61.30;;;;;;6232741;22;20567;-59
2022/01/23 14:32:46;;;;;;;55.38;28.23;;;9.70;60.90;;;;;;6231392;22;20012;-59
2022/01/23 14:35:24;;;;;;;50.63;26.70;;;9.70;61.10;;;;;;6242255;23;20429;-60
2022/01/23 14:37:52;;;;;;;59.60;30.23;;;9.70;60.90;;;;;;6232527;22;20326;-59
2022/01/23 14:40:24;;;;;;;54.15;27.77;;;9.70;60.90;;;;;;6231766;22;20016;-59
2022/01/23 14:43:12;;;;;;;49.15;24.70;;;9.60;60.80;;;;;;6228250;23;20011;-60
2022/01/23 14:45:49;;;;;;;49.78;26.00;;;9.60;60.50;;;;;;6242291;23;20011;-60
2022/01/23 14:48:16;;;;;;;45.38;24.08;;;9.60;60.00;;;;;;6242163;23;20317;-60
2022/01/23 14:50:48;;;;;;;46.42;24.13;;;9.60;60.90;;;;;;6229116;22;20019;-59
2022/01/23 14:53:18;;;;;;;48.13;24.38;;;9.60;60.30;;;;;;6231076;22;20012;-59
2022/01/23 14:55:50;;;;;;;45.22;23.98;;;9.60;60.60;;;;;;6231545;22;20337;-59
2022/01/23 14:58:21;;;;;;;45.58;23.88;;;9.60;60.90;;;;;;6241607;23;20429;-57
2022/01/23 15:00:50;;;;;;;47.17;23.92;;;9.70;61.30;;;;;;6232457;22;20456;-58
2022/01/23 15:03:17;;;;;;;43.92;23.73;;;9.60;61.50;;;;;;6231671;22;20000;-59
2022/01/23 15:05:44;;;;;;;44.10;22.30;;;9.70;61.90;;;;;;6233198;23;20456;-59
2022/01/23 15:08:13;;;;;;;45.92;23.55;;;9.70;62.20;;;;;;6233194;22;20038;-59
2022/01/23 15:10:41;;;;;;;44.72;23.65;;;9.70;62.20;;;;;;6232897;22;20000;-59
2022/01/23 15:13:10;;;;;;;47.00;24.35;;;9.70;62.10;;;;;;6231961;23;20329;-59
2022/01/23 15:15:36;;;;;;;52.72;25.77;;;9.70;62.20;;;;;;6233011;23;20793;-59
2022/01/23 15:18:03;;;;;;;43.08;22.48;;;9.70;62.30;;;;;;6230299;22;20020;-59
2022/01/23 15:20:33;;;;;;;48.97;23.27;;;9.70;62.20;;;;;;6234728;23;20004;-59
2022/01/23 15:23:06;;;;;;;47.67;24.38;;;9.70;62.20;;;;;;6235743;23;20003;-60
2022/01/23 15:25:32;;;;;;;51.80;23.77;;;9.70;62.10;;;;;;6232930;23;20007;-60
2022/01/23 15:27:59;;;;;;;47.45;24.38;;;9.70;62.30;;;;;;6230958;23;20035;-59
2022/01/23 15:30:26;;;;;;;42.85;23.33;;;9.70;62.30;;;;;;6233784;22;20011;-57
2022/01/23 15:32:54;;;;;;;44.45;23.80;;;9.70;62.50;;;;;;6231501;22;20247;-59
2022/01/23 15:35:22;;;;;;;50.03;23.63;;;9.70;63.20;;;;;;6234038;23;20008;-59
2022/01/23 15:37:49;;;;;;;48.95;25.00;;;9.70;62.40;;;;;;6234523;23;20007;-59
2022/01/23 15:40:18;;;;;;;47.78;23.80;;;9.70;62.50;;;;;;6232151;23;20012;-59
2022/01/23 15:42:46;;;;;;;44.00;24.10;;;9.70;62.50;;;;;;6232547;22;20008;-59
2022/01/23 15:45:13;;;;;;;47.10;24.33;;;9.70;62.60;;;;;;6234853;23;20310;-59
2022/01/23 15:47:40;;;;;;;53.47;26.40;;;9.70;62.50;;;;;;6233596;23;20448;-59
2022/01/23 15:50:09;;;;;;;47.20;25.30;;;9.60;62.30;;;;;;6234375;22;20004;-59
2022/01/23 15:52:37;;;;;;;52.03;26.10;;;9.70;62.30;;;;;;6235561;23;20329;-59
2022/01/23 15:55:05;;;;;;;46.88;23.77;;;9.60;62.30;;;;;;6232648;23;20486;-59
2022/01/23 15:57:31;;;;;;;44.40;23.10;;;9.60;62.00;;;;;;6233798;23;20286;-59
2022/01/23 15:59:57;;;;;;;43.75;22.63;;;9.60;61.90;;;;;;6235970;23;20314;-59
2022/01/23 16:02:23;;;;;;;43.20;22.92;;;9.60;61.90;;;;;;6232173;23;20318;-59
2022/01/23 16:04:50;;;;;;;43.83;23.27;;;9.60;62.00;;;;;;6235082;22;20004;-59
2022/01/23 16:07:18;;;;;;;47.40;23.50;;;9.60;62.00;;;;;;6234595;23;20019;-59
2022/01/23 16:09:48;;;;;;;43.28;21.25;;;9.60;62.00;;;;;;6232461;23;20425;-59
2022/01/23 16:12:16;;;;;;;46.03;24.20;;;9.60;62.70;;;;;;6232145;23;20007;-60
2022/01/23 16:14:42;;;;;;;46.95;24.13;;;9.60;62.20;;;;;;6231607;23;20007;-59
2022/01/23 16:17:09;;;;;;;50.10;24.42;;;9.50;62.20;;;;;;6231549;22;20353;-59
2022/01/23 16:19:35;;;;;;;52.50;24.90;;;9.60;62.40;;;;;;6244911;23;20008;-59
2022/01/23 16:22:02;;;;;;;48.60;24.33;;;9.50;62.40;;;;;;6233245;22;20577;-59